Time;durP1;ratioP1;P1;durP2;ratioP2;P2;SDS_P1;SDS_P2;PMS_P1;PMS_P2;Temp;Humidity;BMP_temperature;BMP_pressure;BME280_temperature;BME280_humidity;BME280_pressure;Samples;Min_cycle;Max_cycle;Signal;HPM_P1;HPM_P2
2022/01/22 00:01:48;;;;;;;6.38;1.50;;;5.70;99.90;;;;;;5098507;27;20399;-85
2022/01/22 00:04:15;;;;;;;2.03;0.77;;;5.90;99.90;;;;;;5098735;27;20078;-85
2022/01/22 00:06:40;;;;;;;3.55;1.10;;;5.60;99.90;;;;;;5098154;27;20031;-85
2022/01/22 00:09:07;;;;;;;2.38;0.77;;;5.60;99.90;;;;;;5098456;27;20035;-85
2022/01/22 00:11:37;;;;;;;1.10;0.75;;;5.60;99.90;;;;;;5115393;27;20043;-87
2022/01/22 00:16:48;;;;;;;3.20;0.93;;;5.70;99.90;;;;;;5114391;27;20135;-86
2022/01/22 00:19:14;;;;;;;3.70;1.10;;;5.70;99.90;;;;;;5097848;27;20560;-85
2022/01/22 00:21:40;;;;;;;1.73;0.93;;;5.70;99.90;;;;;;5115058;27;20080;-86
2022/01/22 00:24:09;;;;;;;4.78;1.55;;;5.70;99.90;;;;;;5114380;27;20101;-85
2022/01/22 00:26:35;;;;;;;9.80;2.40;;;5.70;99.90;;;;;;5096925;27;20091;-85
2022/01/22 00:29:03;;;;;;;7.07;1.05;;;5.80;99.90;;;;;;5097220;27;20424;-85
2022/01/22 00:31:29;;;;;;;6.43;1.60;;;6.10;99.90;;;;;;5114599;27;20035;-85
2022/01/22 00:33:55;;;;;;;4.70;1.58;;;5.80;99.90;;;;;;5097742;27;20043;-85
2022/01/22 00:36:21;;;;;;;12.40;2.40;;;5.70;99.90;;;;;;5097346;27;20429;-85
2022/01/22 00:38:47;;;;;;;0.82;0.60;;;5.80;99.90;;;;;;5115030;27;20053;-85
2022/01/22 00:41:13;;;;;;;9.77;0.80;;;5.80;99.90;;;;;;5114883;27;20046;-85
2022/01/22 00:43:39;;;;;;;14.35;1.38;;;5.80;99.90;;;;;;5096972;28;20035;-85
2022/01/22 00:46:04;;;;;;;7.22;0.85;;;5.80;99.90;;;;;;5097246;27;20047;-85
2022/01/22 00:48:30;;;;;;;3.35;1.10;;;5.80;99.90;;;;;;5097876;28;20060;-85
2022/01/22 00:50:57;;;;;;;8.20;1.13;;;5.80;99.90;;;;;;5097516;27;20858;-85
2022/01/22 00:53:24;;;;;;;4.40;1.08;;;5.80;99.90;;;;;;5097592;27;20110;-85
2022/01/22 00:55:52;;;;;;;6.63;0.93;;;5.80;99.90;;;;;;5081038;28;20046;-86
2022/01/22 00:58:18;;;;;;;0.75;0.52;;;5.80;99.90;;;;;;5096943;28;20036;-85
2022/01/22 01:00:44;;;;;;;2.53;1.05;;;5.90;99.90;;;;;;5097077;28;20050;-85
2022/01/22 01:03:10;;;;;;;2.60;0.90;;;5.90;99.90;;;;;;5097041;28;20046;-85
2022/01/22 01:05:36;;;;;;;2.05;1.05;;;5.80;99.90;;;;;;5097013;28;20499;-85
2022/01/22 01:08:03;;;;;;;3.42;0.60;;;5.90;99.90;;;;;;5096838;28;20043;-85
2022/01/22 01:10:28;;;;;;;4.75;1.42;;;5.90;99.90;;;;;;5097264;28;20050;-86
2022/01/22 01:12:54;;;;;;;1.95;0.95;;;6.40;99.90;;;;;;5097140;28;20035;-85
2022/01/22 01:34:14;;;;;;;3.83;1.13;;;6.10;99.90;;;;;;5113840;28;20116;-86
2022/01/22 01:36:41;;;;;;;1.10;0.52;;;6.10;99.90;;;;;;5096805;28;20069;-85
2022/01/22 01:39:10;;;;;;;8.77;2.05;;;6.30;99.90;;;;;;5096708;28;20083;-85
2022/01/22 01:44:13;;;;;;;4.13;0.73;;;6.10;99.90;;;;;;5113409;28;20043;-85
2022/01/22 01:46:44;;;;;;;3.92;1.05;;;6.10;99.90;;;;;;5096438;28;20385;-85
2022/01/22 01:49:11;;;;;;;1.88;0.52;;;6.10;99.90;;;;;;5080396;28;20425;-85
2022/01/22 01:51:36;;;;;;;6.70;0.75;;;6.10;99.90;;;;;;5097025;28;20068;-86
2022/01/22 01:59:50;;;;;;;6.20;1.30;;;6.10;99.90;;;;;;5111592;27;20407;-85
2022/01/22 02:02:16;;;;;;;1.98;1.00;;;6.10;99.90;;;;;;5084212;27;20092;-85
2022/01/22 02:04:42;;;;;;;2.60;0.98;;;6.10;99.90;;;;;;5117724;27;20035;-85
2022/01/22 02:07:08;;;;;;;3.20;1.25;;;6.10;99.90;;;;;;5100347;27;20407;-85
2022/01/22 02:09:36;;;;;;;6.28;1.10;;;6.40;99.90;;;;;;5100790;27;20126;-85
2022/01/22 02:12:09;;;;;;;3.30;1.50;;;6.10;99.90;;;;;;5100372;27;20122;-86
2022/01/22 02:25:32;;;;;;;8.77;1.50;;;6.30;99.90;;;;;;5117193;27;20080;-85
2022/01/22 02:27:59;;;;;;;5.05;1.08;;;6.10;99.90;;;;;;5116700;27;20043;-85
2022/01/22 02:30:29;;;;;;;6.68;3.20;;;6.20;99.90;;;;;;5100288;27;20039;-85
2022/01/22 02:33:12;;;;;;;3.05;1.02;;;6.10;99.90;;;;;;5100336;27;20125;-86
2022/01/22 02:35:48;;;;;;;3.85;0.85;;;6.40;99.90;;;;;;5117031;27;20035;-85
2022/01/22 02:38:20;;;;;;;2.80;0.88;;;6.10;99.90;;;;;;5099771;27;20042;-86
2022/01/22 02:40:48;;;;;;;5.15;0.90;;;6.10;99.90;;;;;;5100173;27;20083;-85
2022/01/22 02:43:15;;;;;;;3.05;1.48;;;6.10;99.90;;;;;;5099876;27;20035;-85
2022/01/22 02:45:42;;;;;;;3.20;0.88;;;6.10;99.90;;;;;;5116642;27;20039;-86
2022/01/22 02:48:08;;;;;;;3.03;0.98;;;6.30;99.90;;;;;;5099092;27;20035;-85
2022/01/22 02:50:34;;;;;;;0.90;0.50;;;6.10;99.90;;;;;;5099274;27;20180;-85
2022/01/22 02:53:08;;;;;;;0.60;0.50;;;6.40;99.90;;;;;;5098848;27;20509;-85
2022/01/22 02:55:34;;;;;;;3.63;1.30;;;6.10;99.90;;;;;;5099163;27;20047;-85
2022/01/22 02:58:12;;;;;;;1.65;0.98;;;6.10;99.90;;;;;;5098500;27;20403;-85
2022/01/22 03:00:44;;;;;;;3.35;0.80;;;6.10;99.90;;;;;;5116133;27;20031;-86
2022/01/22 03:03:10;;;;;;;0.50;0.50;;;6.10;99.90;;;;;;5099171;27;20042;-85
2022/01/22 03:05:35;;;;;;;1.23;0.65;;;6.10;99.90;;;;;;5099687;27;20046;-85
2022/01/22 03:08:06;;;;;;;1.77;0.70;;;6.10;99.90;;;;;;5115464;27;20176;-86
2022/01/22 03:10:32;;;;;;;0.20;0.20;;;6.20;99.90;;;;;;5100071;27;20501;-85
2022/01/22 03:18:14;;;;;;;0.25;0.25;;;6.10;99.90;;;;;;5115757;27;20147;-86
2022/01/22 03:27:20;;;;;;;0.93;0.68;;;6.00;99.90;;;;;;5116291;27;20043;-85
2022/01/22 03:28:55;;;;;;;12.45;1.15;;;5.90;99.90;;;;;;5115541;27;19960;-86
2022/01/22 03:31:20;;;;;;;0.43;0.43;;;6.00;99.90;;;;;;5098498;27;20046;-86
2022/01/22 03:33:46;;;;;;;0.68;0.55;;;5.90;99.90;;;;;;5115195;27;20039;-85
2022/01/22 03:36:12;;;;;;;0.40;0.40;;;5.90;99.90;;;;;;5098465;27;20027;-86
2022/01/22 03:38:38;;;;;;;2.78;1.60;;;5.90;99.90;;;;;;5115617;27;20118;-85
2022/01/22 03:41:03;;;;;;;0.30;0.30;;;5.90;99.90;;;;;;5116307;27;20031;-86
2022/01/22 03:43:29;;;;;;;0.43;0.43;;;6.30;99.90;;;;;;5099800;27;20043;-86
2022/01/22 03:45:55;;;;;;;0.65;0.65;;;5.90;99.90;;;;;;5099585;27;20039;-86
2022/01/22 03:48:20;;;;;;;0.40;0.40;;;6.00;99.90;;;;;;5099393;27;20039;-85
2022/01/22 03:50:46;;;;;;;0.95;0.82;;;5.90;99.90;;;;;;5099490;27;20042;-85
2022/01/22 03:53:11;;;;;;;2.60;0.50;;;6.00;99.90;;;;;;5099463;27;20035;-86
2022/01/22 03:55:49;;;;;;;1.88;0.90;;;5.90;99.90;;;;;;5099399;27;20116;-86
2022/01/22 03:58:15;;;;;;;0.30;0.30;;;6.00;99.90;;;;;;5098814;27;20045;-85
2022/01/22 04:00:41;;;;;;;1.40;0.70;;;5.90;99.90;;;;;;5116528;27;20118;-85
2022/01/22 04:05:34;;;;;;;1.10;0.45;;;6.00;99.90;;;;;;5116347;27;20039;-85
2022/01/22 04:08:10;;;;;;;0.68;0.63;;;6.00;99.90;;;;;;5098835;27;20039;-85
2022/01/22 04:10:36;;;;;;;0.57;0.52;;;5.90;99.90;;;;;;5116608;27;20171;-85
2022/01/22 04:13:09;;;;;;;2.63;1.20;;;6.00;99.90;;;;;;5116492;27;20122;-86
2022/01/22 04:15:38;;;;;;;0.75;0.40;;;5.90;99.90;;;;;;5099317;27;20091;-85
2022/01/22 04:26:33;;;;;;;0.50;0.50;;;5.90;99.90;;;;;;5115608;27;20130;-85
2022/01/22 04:28:59;;;;;;;0.73;0.65;;;6.20;99.90;;;;;;5099214;27;20045;-86
2022/01/22 04:31:24;;;;;;;0.60;0.60;;;5.90;99.90;;;;;;5099086;27;20035;-86
2022/01/22 04:33:50;;;;;;;1.85;0.40;;;5.90;99.90;;;;;;5098930;27;20031;-85
2022/01/22 04:36:16;;;;;;;0.75;0.50;;;5.90;99.90;;;;;;5098397;27;20045;-86
2022/01/22 04:38:42;;;;;;;0.30;0.30;;;5.90;99.90;;;;;;5115776;27;20037;-86
2022/01/22 04:41:07;;;;;;;0.57;0.43;;;6.00;99.90;;;;;;5098974;27;20088;-86
2022/01/22 04:43:36;;;;;;;1.30;0.70;;;5.90;99.90;;;;;;5098869;27;20122;-85
2022/01/22 04:46:12;;;;;;;0.50;0.50;;;5.90;99.90;;;;;;5098654;27;20035;-87
2022/01/22 04:48:49;;;;;;;0.40;0.40;;;5.90;99.90;;;;;;5099033;27;20035;-86
2022/01/22 04:56:43;;;;;;;0.30;0.30;;;5.90;99.90;;;;;;5115208;28;20059;-85
2022/01/22 04:59:09;;;;;;;1.15;0.57;;;5.90;99.90;;;;;;5098692;28;20035;-85
2022/01/22 05:01:35;;;;;;;2.08;0.90;;;5.90;99.90;;;;;;5098901;28;20095;-85
2022/01/22 05:04:00;;;;;;;1.75;0.43;;;6.20;99.90;;;;;;5098798;28;20039;-84
2022/01/22 05:06:26;;;;;;;0.95;0.40;;;5.90;99.90;;;;;;5098306;28;20098;-85
2022/01/22 05:08:53;;;;;;;1.38;0.55;;;5.90;99.90;;;;;;5098748;28;20043;-85
2022/01/22 05:11:18;;;;;;;1.23;0.73;;;5.90;99.90;;;;;;5115560;28;20035;-86
2022/01/22 05:13:44;;;;;;;4.75;0.85;;;5.90;99.90;;;;;;5098372;28;20152;-86
2022/01/22 05:16:10;;;;;;;0.47;0.43;;;5.90;99.90;;;;;;5098462;28;20399;-86
2022/01/22 05:18:47;;;;;;;3.38;0.40;;;5.90;99.90;;;;;;5115312;28;20039;-85
2022/01/22 05:21:16;;;;;;;0.30;0.30;;;5.90;99.90;;;;;;5115661;28;20502;-86
2022/01/22 05:23:43;;;;;;;0.60;0.50;;;5.90;99.90;;;;;;5098574;28;20642;-86
2022/01/22 05:26:25;;;;;;;0.47;0.47;;;6.10;99.90;;;;;;5098023;28;20485;-86
2022/01/22 05:32:31;;;;;;;0.35;0.35;;;5.90;99.90;;;;;;5119672;27;20047;-85
2022/01/22 05:37:29;;;;;;;0.90;0.70;;;5.90;99.90;;;;;;5118834;27;20049;-86
2022/01/22 05:39:54;;;;;;;0.60;0.45;;;6.00;99.90;;;;;;5119530;27;20126;-85
2022/01/22 05:42:20;;;;;;;0.30;0.30;;;5.90;99.90;;;;;;5102403;27;20468;-85
2022/01/22 05:44:45;;;;;;;0.40;0.40;;;5.90;99.90;;;;;;5102198;27;20050;-85
2022/01/22 05:47:13;;;;;;;0.30;0.30;;;5.90;99.90;;;;;;5101855;27;20042;-85
2022/01/22 05:49:42;;;;;;;0.70;0.68;;;5.90;99.90;;;;;;5101901;27;20039;-85
2022/01/22 05:52:10;;;;;;;1.30;0.80;;;5.90;99.90;;;;;;5102010;27;20039;-85
2022/01/22 05:55:07;;;;;;;1.45;0.85;;;5.90;99.90;;;;;;5118941;27;20036;-85
2022/01/22 06:00:17;;;;;;;0.63;0.45;;;5.90;99.90;;;;;;5118872;27;20082;-85
2022/01/22 06:02:42;;;;;;;0.52;0.52;;;5.90;99.90;;;;;;5101893;27;20059;-85
2022/01/22 06:05:08;;;;;;;0.95;0.50;;;6.00;99.90;;;;;;5101780;27;20039;-85
2022/01/22 06:07:34;;;;;;;0.65;0.50;;;5.90;99.90;;;;;;5118233;27;20035;-86
2022/01/22 06:12:43;;;;;;;1.73;0.80;;;5.90;99.90;;;;;;5118827;27;20047;-85
2022/01/22 06:15:10;;;;;;;0.75;0.38;;;6.00;99.90;;;;;;5101557;27;20043;-85
2022/01/22 06:17:36;;;;;;;0.60;0.60;;;5.90;99.90;;;;;;5101296;27;20043;-85
2022/01/22 06:20:02;;;;;;;0.35;0.35;;;5.90;99.90;;;;;;5101331;27;20187;-85
2022/01/22 06:22:28;;;;;;;0.40;0.40;;;5.90;99.90;;;;;;5118357;27;20045;-86
2022/01/22 06:24:53;;;;;;;0.52;0.50;;;5.90;99.90;;;;;;5118449;27;20129;-85
2022/01/22 06:27:19;;;;;;;20.50;2.00;;;5.90;99.90;;;;;;5101037;27;20088;-85
2022/01/22 06:29:44;;;;;;;0.40;0.40;;;5.90;99.90;;;;;;5101273;27;20039;-85
2022/01/22 06:32:10;;;;;;;0.80;0.50;;;6.00;99.90;;;;;;5101284;27;20073;-85
2022/01/22 06:34:35;;;;;;;1.40;0.77;;;6.30;99.90;;;;;;5118083;27;20035;-86
2022/01/22 06:37:01;;;;;;;0.38;0.38;;;6.00;99.90;;;;;;5100849;27;20491;-85
2022/01/22 06:39:27;;;;;;;1.58;1.33;;;5.90;99.90;;;;;;5101097;27;20484;-86
2022/01/22 06:41:53;;;;;;;2.58;0.60;;;5.90;99.90;;;;;;5100988;27;20045;-85
2022/01/22 06:44:26;;;;;;;0.40;0.40;;;6.40;99.90;;;;;;5101026;27;20039;-85
2022/01/22 06:46:54;;;;;;;1.15;0.77;;;5.90;99.90;;;;;;5100541;27;20035;-85
2022/01/22 06:49:20;;;;;;;1.05;0.75;;;5.90;99.90;;;;;;5117885;27;20046;-86
2022/01/22 06:52:03;;;;;;;0.43;0.43;;;5.90;99.90;;;;;;5098994;27;20129;-85
2022/01/22 06:54:36;;;;;;;1.15;0.75;;;5.90;99.90;;;;;;5100845;27;20035;-85
2022/01/22 06:57:01;;;;;;;0.90;0.60;;;5.90;99.90;;;;;;5099731;27;20125;-85
2022/01/22 06:59:27;;;;;;;6.00;1.48;;;5.90;99.90;;;;;;5117687;27;20126;-85
2022/01/22 07:01:54;;;;;;;0.60;0.60;;;5.90;99.90;;;;;;5113870;27;20476;-85
2022/01/22 07:04:21;;;;;;;0.90;0.68;;;5.90;99.90;;;;;;5108697;27;20086;-85
2022/01/22 07:06:47;;;;;;;0.40;0.40;;;5.90;99.90;;;;;;5119205;27;20047;-86
2022/01/22 07:09:12;;;;;;;0.65;0.60;;;6.10;99.90;;;;;;5136776;27;20050;-86
2022/01/22 07:11:38;;;;;;;0.30;0.30;;;5.90;99.90;;;;;;5120006;27;20403;-86
2022/01/22 07:14:03;;;;;;;0.30;0.30;;;5.90;99.90;;;;;;5124215;27;20034;-85
2022/01/22 07:16:29;;;;;;;1.75;0.50;;;5.90;99.90;;;;;;5099805;27;20047;-86
2022/01/22 07:19:00;;;;;;;1.38;0.60;;;5.90;99.90;;;;;;5116596;27;20505;-85
2022/01/22 07:21:28;;;;;;;1.77;0.70;;;5.90;99.90;;;;;;5099092;27;20040;-88
2022/01/22 07:24:37;;;;;;;3.53;0.43;;;6.10;99.90;;;;;;5099217;27;20039;-86
2022/01/22 07:26:42;;;;;;;1.10;0.63;;;6.10;99.90;;;;;;5107590;27;20054;-86
2022/01/22 07:29:09;;;;;;;0.40;0.40;;;6.00;99.90;;;;;;5099303;27;20035;-86
2022/01/22 07:31:35;;;;;;;0.28;0.28;;;5.80;99.90;;;;;;5117128;27;20043;-85
2022/01/22 07:34:01;;;;;;;1.85;0.70;;;5.80;99.90;;;;;;5103309;27;20061;-86
2022/01/22 07:36:26;;;;;;;0.77;0.52;;;5.80;99.90;;;;;;5115674;27;20040;-86
2022/01/22 07:38:52;;;;;;;0.30;0.30;;;5.80;99.90;;;;;;5130457;27;20039;-86
2022/01/22 07:41:17;;;;;;;0.88;0.57;;;5.80;99.90;;;;;;5119741;27;20031;-86
2022/01/22 07:43:43;;;;;;;2.42;0.75;;;5.80;99.90;;;;;;5136218;27;20043;-85
2022/01/22 07:46:09;;;;;;;0.77;0.45;;;5.80;99.90;;;;;;5119287;27;20129;-85
2022/01/22 07:48:34;;;;;;;1.13;0.50;;;5.90;99.90;;;;;;5119810;27;20034;-86
2022/01/22 07:51:00;;;;;;;4.15;0.85;;;5.70;99.90;;;;;;5136521;27;20129;-86
2022/01/22 07:53:25;;;;;;;0.50;0.50;;;6.00;99.90;;;;;;5118891;27;20066;-86
2022/01/22 07:55:52;;;;;;;0.47;0.47;;;6.10;99.90;;;;;;5119552;27;20039;-85
2022/01/22 07:58:17;;;;;;;0.65;0.50;;;5.70;99.90;;;;;;5136124;27;20042;-86
2022/01/22 08:00:43;;;;;;;1.88;0.63;;;5.70;99.90;;;;;;5123637;27;20041;-86
2022/01/22 08:03:09;;;;;;;0.40;0.40;;;5.70;99.90;;;;;;5110858;27;20043;-86
2022/01/22 08:05:35;;;;;;;0.30;0.30;;;5.70;99.90;;;;;;5136436;27;20039;-85
2022/01/22 08:08:01;;;;;;;1.52;0.50;;;5.70;99.90;;;;;;5119102;27;20061;-85
2022/01/22 08:10:27;;;;;;;0.43;0.30;;;5.70;99.90;;;;;;5119135;27;20483;-85
2022/01/22 08:12:53;;;;;;;0.65;0.60;;;5.70;99.90;;;;;;5119553;27;20503;-85
2022/01/22 08:15:20;;;;;;;0.98;0.55;;;5.80;99.90;;;;;;5119338;27;20398;-86
2022/01/22 08:17:46;;;;;;;0.30;0.30;;;5.70;99.90;;;;;;5118551;27;20043;-86
2022/01/22 08:20:14;;;;;;;0.32;0.32;;;5.70;99.90;;;;;;5119356;27;20033;-85
2022/01/22 08:22:40;;;;;;;0.25;0.25;;;5.80;99.90;;;;;;5118948;27;20039;-86
2022/01/22 08:25:07;;;;;;;0.82;0.47;;;5.80;99.90;;;;;;5106076;27;20039;-85
2022/01/22 08:27:42;;;;;;;0.35;0.35;;;5.70;99.90;;;;;;5077845;28;20035;-85
2022/01/22 08:30:10;;;;;;;0.20;0.20;;;6.00;99.90;;;;;;5078341;28;20109;-85
2022/01/22 08:37:49;;;;;;;0.30;0.30;;;5.80;99.90;;;;;;5094625;28;20135;-85
2022/01/22 08:40:14;;;;;;;5.40;0.65;;;5.70;99.90;;;;;;5077821;28;20384;-85
2022/01/22 08:42:40;;;;;;;0.30;0.30;;;5.80;99.90;;;;;;5078037;28;20043;-86
2022/01/22 08:45:07;;;;;;;1.00;0.80;;;5.80;99.90;;;;;;5095213;28;20046;-85
2022/01/22 08:47:33;;;;;;;0.50;0.50;;;5.80;99.90;;;;;;5095059;28;20476;-85
2022/01/22 08:49:58;;;;;;;0.60;0.57;;;5.90;99.90;;;;;;5109500;27;20046;-85
2022/01/22 08:53:18;;;;;;;0.55;0.52;;;5.90;99.90;;;;;;5118703;27;20050;-85
2022/01/22 08:55:44;;;;;;;0.65;0.60;;;5.90;99.90;;;;;;5077882;28;20040;-85
2022/01/22 08:58:09;;;;;;;1.00;0.82;;;5.90;99.90;;;;;;5094248;28;20047;-85
2022/01/22 09:00:37;;;;;;;0.30;0.30;;;5.90;99.90;;;;;;5077886;28;20412;-86
2022/01/22 09:03:04;;;;;;;0.65;0.40;;;5.90;99.90;;;;;;5094599;28;20088;-86
2022/01/22 09:05:34;;;;;;;0.40;0.40;;;5.90;99.90;;;;;;5096326;28;20074;-86
2022/01/22 09:08:00;;;;;;;1.80;0.88;;;5.90;99.90;;;;;;5098677;28;20040;-86
2022/01/22 09:10:25;;;;;;;0.28;0.28;;;6.00;99.90;;;;;;5081900;28;20051;-85
2022/01/22 09:12:51;;;;;;;0.30;0.30;;;6.00;99.90;;;;;;5097018;27;20031;-85
2022/01/22 09:15:16;;;;;;;0.43;0.43;;;6.00;99.90;;;;;;5120690;27;20411;-86
2022/01/22 09:17:47;;;;;;;0.85;0.70;;;6.00;99.90;;;;;;5139093;27;20066;-86
2022/01/22 09:20:19;;;;;;;0.50;0.50;;;6.00;99.90;;;;;;5139710;27;20045;-85
2022/01/22 09:22:45;;;;;;;0.40;0.40;;;6.10;99.90;;;;;;5122470;27;20026;-85
2022/01/22 09:25:15;;;;;;;2.05;1.33;;;6.00;99.90;;;;;;5122484;27;20038;-86
2022/01/22 09:27:40;;;;;;;2.67;1.00;;;6.00;99.90;;;;;;5139016;27;20388;-86
2022/01/22 09:30:07;;;;;;;4.15;1.45;;;6.00;99.90;;;;;;5122545;27;20038;-86
2022/01/22 09:32:32;;;;;;;0.50;0.50;;;6.00;99.90;;;;;;5122470;27;20042;-85
2022/01/22 09:34:58;;;;;;;3.63;1.10;;;6.00;99.90;;;;;;5118241;27;20034;-87
2022/01/22 09:37:23;;;;;;;0.55;0.55;;;6.00;99.90;;;;;;5109488;27;20458;-86
2022/01/22 09:39:49;;;;;;;0.68;0.55;;;6.30;99.90;;;;;;5118539;27;20035;-86
2022/01/22 09:42:15;;;;;;;10.25;2.15;;;6.00;99.90;;;;;;5101639;27;20107;-87
2022/01/22 09:44:42;;;;;;;0.82;0.43;;;6.00;99.90;;;;;;5118859;27;20488;-86
2022/01/22 09:47:11;;;;;;;0.30;0.30;;;6.00;99.90;;;;;;5101067;27;20503;-85
2022/01/22 09:49:36;;;;;;;0.45;0.45;;;6.00;99.90;;;;;;5101380;27;20122;-85
2022/01/22 09:52:02;;;;;;;4.63;1.40;;;6.00;99.90;;;;;;5101421;27;20085;-85
2022/01/22 09:54:28;;;;;;;0.63;0.52;;;6.00;99.90;;;;;;5101139;27;20177;-84
2022/01/22 09:56:58;;;;;;;1.92;1.23;;;6.00;99.90;;;;;;5116983;27;20047;-84
2022/01/22 09:59:29;;;;;;;2.53;1.77;;;6.00;99.90;;;;;;5101029;27;20497;-86
2022/01/22 10:02:14;;;;;;;0.50;0.50;;;6.10;99.90;;;;;;5105600;27;20114;-88
2022/01/22 10:04:45;;;;;;;0.63;0.63;;;6.10;99.90;;;;;;5095723;27;20172;-85
2022/01/22 10:07:25;;;;;;;0.38;0.38;;;6.10;99.90;;;;;;5085850;28;20040;-85
2022/01/22 10:10:11;;;;;;;0.25;0.25;;;6.10;99.90;;;;;;5080866;28;20031;-85
2022/01/22 10:12:45;;;;;;;1.60;0.65;;;6.10;99.90;;;;;;5080945;28;20043;-85
2022/01/22 10:15:19;;;;;;;2.13;1.95;;;6.20;99.90;;;;;;5080475;28;20404;-85
2022/01/22 10:17:53;;;;;;;0.40;0.40;;;6.10;99.90;;;;;;5082862;28;20071;-84
2022/01/22 10:20:24;;;;;;;1.65;0.80;;;6.20;99.90;;;;;;5097295;28;20180;-85
2022/01/22 10:22:52;;;;;;;0.85;0.68;;;6.20;99.90;;;;;;5125589;27;20075;-85
2022/01/22 10:25:42;;;;;;;0.30;0.30;;;6.30;99.90;;;;;;5111483;27;20043;-85
2022/01/22 10:28:15;;;;;;;0.50;0.50;;;6.60;99.90;;;;;;5138001;27;20103;-85
2022/01/22 10:30:44;;;;;;;0.93;0.93;;;6.20;99.90;;;;;;5121193;27;20122;-84
2022/01/22 10:33:20;;;;;;;1.92;0.55;;;6.20;99.90;;;;;;5121068;27;20070;-84
2022/01/22 10:35:46;;;;;;;0.20;0.20;;;6.20;99.90;;;;;;5137953;27;20043;-84
2022/01/22 10:38:18;;;;;;;0.30;0.30;;;6.30;99.90;;;;;;5101888;27;20515;-85
2022/01/22 10:40:45;;;;;;;0.45;0.45;;;6.30;99.90;;;;;;5100617;27;20035;-85
2022/01/22 10:43:11;;;;;;;0.30;0.30;;;6.30;99.90;;;;;;5099973;27;20039;-85
2022/01/22 10:45:40;;;;;;;0.88;0.88;;;6.30;99.90;;;;;;5125731;27;20096;-85
2022/01/22 10:48:14;;;;;;;1.55;1.17;;;6.30;99.90;;;;;;5111878;27;20041;-84
2022/01/22 10:50:40;;;;;;;4.40;1.48;;;6.30;99.90;;;;;;5137407;27;20038;-84
2022/01/22 10:53:06;;;;;;;2.92;2.17;;;6.30;99.90;;;;;;5120779;27;20143;-85
2022/01/22 10:55:31;;;;;;;1.85;1.05;;;6.40;99.90;;;;;;5119446;27;20039;-84
2022/01/22 10:58:10;;;;;;;8.98;2.50;;;6.40;99.90;;;;;;5116732;27;20039;-85
2022/01/22 11:00:36;;;;;;;3.28;2.53;;;6.40;99.90;;;;;;5100133;27;20045;-85
2022/01/22 11:03:21;;;;;;;3.63;0.98;;;6.40;99.90;;;;;;5100087;27;20066;-85
2022/01/22 11:05:47;;;;;;;0.65;0.30;;;6.40;99.90;;;;;;5099912;27;20039;-85
2022/01/22 11:08:13;;;;;;;2.60;1.08;;;6.40;99.90;;;;;;5099647;27;20050;-86
2022/01/22 11:10:41;;;;;;;1.80;1.17;;;6.40;99.90;;;;;;5104313;27;20031;-84
2022/01/22 11:13:07;;;;;;;1.95;1.05;;;6.40;99.90;;;;;;5118172;27;20034;-86
2022/01/22 11:15:49;;;;;;;4.13;2.25;;;6.50;99.90;;;;;;5120143;27;20061;-88
2022/01/22 11:18:17;;;;;;;1.38;1.05;;;6.50;99.90;;;;;;5136902;27;20043;-87
2022/01/22 11:20:43;;;;;;;9.57;3.38;;;6.50;99.90;;;;;;5120161;27;20103;-86
2022/01/22 11:23:09;;;;;;;1.42;0.85;;;6.80;99.90;;;;;;5120135;27;20035;-87
2022/01/22 11:25:35;;;;;;;3.42;1.15;;;6.50;99.90;;;;;;5120127;27;20034;-86
2022/01/22 11:28:02;;;;;;;4.68;2.35;;;6.50;99.90;;;;;;5135922;27;20041;-86
2022/01/22 11:30:33;;;;;;;3.70;2.63;;;6.50;99.90;;;;;;5137702;27;20038;-86
2022/01/22 11:33:05;;;;;;;2.03;1.35;;;6.50;99.90;;;;;;5128197;27;20043;-87
2022/01/22 11:35:57;;;;;;;10.80;1.95;;;6.50;99.90;;;;;;5112211;27;20040;-86
2022/01/22 11:38:50;;;;;;;8.13;1.38;;;6.50;99.90;;;;;;5119402;27;20100;-86
2022/01/22 11:42:04;;;;;;;1.60;0.88;;;6.50;99.90;;;;;;5108938;27;21548;-86
2022/01/22 11:44:32;;;;;;;2.40;0.80;;;6.50;99.90;;;;;;5119820;27;20055;-84
2022/01/22 11:47:11;;;;;;;1.23;1.13;;;6.60;99.90;;;;;;5119430;27;20046;-84
2022/01/22 11:49:37;;;;;;;0.95;0.95;;;6.50;99.90;;;;;;5109383;27;20031;-85
2022/01/22 11:52:11;;;;;;;2.22;0.90;;;6.50;99.90;;;;;;5116033;27;20043;-85
2022/01/22 11:54:56;;;;;;;4.47;0.88;;;6.50;99.90;;;;;;5098859;27;20039;-84
2022/01/22 11:57:26;;;;;;;1.27;1.17;;;6.50;99.90;;;;;;5094879;27;20133;-86
2022/01/22 12:00:14;;;;;;;1.35;0.70;;;6.50;99.90;;;;;;5102744;27;20035;-85
2022/01/22 12:02:40;;;;;;;1.15;0.63;;;6.50;99.90;;;;;;5100344;28;20428;-84
2022/01/22 12:05:07;;;;;;;1.05;0.77;;;6.50;99.90;;;;;;5098116;27;20050;-84
2022/01/22 12:07:35;;;;;;;1.10;0.82;;;6.50;99.90;;;;;;5099357;27;20035;-85
2022/01/22 12:10:19;;;;;;;1.17;0.80;;;6.50;99.90;;;;;;5109114;27;20122;-83
2022/01/22 12:15:23;;;;;;;1.73;1.15;;;6.60;99.90;;;;;;5115543;27;20131;-85
2022/01/22 12:17:51;;;;;;;4.57;1.38;;;6.60;99.90;;;;;;5088890;27;20420;-84
2022/01/22 12:23:03;;;;;;;3.70;1.88;;;6.60;99.90;;;;;;5115962;27;20047;-84
2022/01/22 12:25:29;;;;;;;2.90;1.75;;;6.60;99.90;;;;;;5104088;27;20049;-85
2022/01/22 12:27:55;;;;;;;9.55;2.53;;;6.60;99.90;;;;;;5115127;27;20042;-84
2022/01/22 12:30:44;;;;;;;2.75;1.75;;;6.60;99.90;;;;;;5098587;27;20053;-84
2022/01/22 12:33:35;;;;;;;9.98;1.23;;;6.60;99.90;;;;;;5115320;27;20130;-85
2022/01/22 12:36:17;;;;;;;2.10;1.00;;;6.70;99.90;;;;;;5097926;27;20062;-84
2022/01/22 12:38:49;;;;;;;2.22;1.77;;;6.70;99.90;;;;;;5098176;27;20062;-84
2022/01/22 12:41:46;;;;;;;1.42;1.10;;;6.70;99.90;;;;;;5098824;27;20031;-84
2022/01/22 12:47:06;;;;;;;3.45;1.95;;;6.70;99.90;;;;;;5128344;27;20499;-84
2022/01/22 12:49:33;;;;;;;3.05;1.70;;;6.70;99.90;;;;;;5098029;27;20042;-84
2022/01/22 12:52:05;;;;;;;1.35;0.80;;;6.70;99.90;;;;;;5097728;27;20039;-84
2022/01/22 12:54:36;;;;;;;1.75;0.52;;;6.70;99.90;;;;;;5096823;28;20042;-84
2022/01/22 12:57:13;;;;;;;0.50;0.45;;;6.70;99.90;;;;;;5097482;27;20045;-84
2022/01/22 13:00:18;;;;;;;3.10;0.77;;;6.70;99.90;;;;;;5097870;28;20031;-84
2022/01/22 13:02:57;;;;;;;0.50;0.50;;;6.70;99.90;;;;;;5094846;28;20043;-84
2022/01/22 13:05:25;;;;;;;0.57;0.47;;;6.70;99.90;;;;;;5083034;28;20126;-84
2022/01/22 13:07:54;;;;;;;0.35;0.35;;;6.70;99.90;;;;;;5110042;27;20130;-84
2022/01/22 13:10:32;;;;;;;3.90;1.08;;;6.70;99.90;;;;;;5121765;28;20039;-85
2022/01/22 13:13:02;;;;;;;0.93;0.80;;;6.70;99.90;;;;;;5082200;28;20161;-84
2022/01/22 13:15:27;;;;;;;0.40;0.40;;;6.80;99.90;;;;;;5097786;28;20036;-84
2022/01/22 13:17:56;;;;;;;1.50;0.60;;;6.70;99.90;;;;;;5097440;28;20471;-84
2022/01/22 13:20:25;;;;;;;2.58;0.85;;;6.70;99.90;;;;;;5097594;28;20043;-84
2022/01/22 13:22:51;;;;;;;14.45;1.65;;;6.70;99.90;;;;;;5090430;28;20035;-84
2022/01/22 13:25:18;;;;;;;0.32;0.32;;;6.70;99.90;;;;;;5094264;28;20050;-84
2022/01/22 13:27:59;;;;;;;0.90;0.38;;;6.70;99.90;;;;;;5110713;28;20415;-84
2022/01/22 13:30:32;;;;;;;2.85;0.73;;;6.70;99.90;;;;;;5118801;27;20039;-85
2022/01/22 13:33:03;;;;;;;2.22;1.65;;;6.70;99.90;;;;;;5124882;27;20039;-84
2022/01/22 13:49:27;;;;;;;4.03;1.27;;;6.80;99.90;;;;;;5114533;28;20051;-84
2022/01/22 13:51:55;;;;;;;1.95;1.17;;;6.80;99.90;;;;;;5099799;27;20036;-84
2022/01/22 13:54:28;;;;;;;1.45;0.73;;;6.80;99.90;;;;;;5105517;27;20118;-84
2022/01/22 13:56:57;;;;;;;1.42;0.68;;;6.80;99.90;;;;;;5105362;27;20035;-84
2022/01/22 13:59:30;;;;;;;1.33;0.65;;;6.80;99.90;;;;;;5101141;27;20042;-84
2022/01/22 14:05:00;;;;;;;9.45;1.35;;;6.70;99.90;;;;;;5118117;27;20100;-84
2022/01/22 14:07:31;;;;;;;0.40;0.40;;;6.70;99.90;;;;;;5100874;27;20543;-85
2022/01/22 14:10:13;;;;;;;4.95;0.55;;;6.60;99.90;;;;;;5101081;27;20408;-84
2022/01/22 14:12:49;;;;;;;0.52;0.50;;;6.60;99.90;;;;;;5104326;27;20034;-84
2022/01/22 14:15:24;;;;;;;8.88;1.17;;;6.60;99.90;;;;;;5121380;27;20121;-84
2022/01/22 14:17:54;;;;;;;0.52;0.45;;;6.60;99.90;;;;;;5129024;27;20039;-84
2022/01/22 14:20:27;;;;;;;0.90;0.63;;;6.60;99.90;;;;;;5126362;27;20035;-84
2022/01/22 14:23:10;;;;;;;0.47;0.47;;;6.60;99.90;;;;;;5117887;27;20095;-84
2022/01/22 14:25:55;;;;;;;3.85;1.33;;;6.60;99.90;;;;;;5100877;27;20046;-84
2022/01/22 14:28:23;;;;;;;1.92;0.85;;;6.60;99.90;;;;;;5100237;27;20050;-84
2022/01/22 14:30:49;;;;;;;1.05;0.82;;;6.60;99.90;;;;;;5100646;27;20070;-84
2022/01/22 14:33:18;;;;;;;2.75;0.90;;;6.60;99.90;;;;;;5121163;27;20454;-84
2022/01/22 14:35:57;;;;;;;1.23;0.73;;;6.60;99.90;;;;;;5120506;27;20042;-85
2022/01/22 14:38:36;;;;;;;8.27;2.60;;;6.60;99.90;;;;;;5118850;27;20411;-85
2022/01/22 14:46:48;;;;;;;13.98;3.50;;;6.50;99.90;;;;;;5096503;28;20142;-84
2022/01/22 14:49:15;;;;;;;2.65;2.05;;;6.50;99.90;;;;;;5104697;27;20039;-85
2022/01/22 14:51:41;;;;;;;0.55;0.47;;;6.50;99.90;;;;;;5099947;27;20043;-84
2022/01/22 14:54:07;;;;;;;10.23;0.93;;;6.50;99.90;;;;;;5099919;27;20038;-85
2022/01/22 14:56:58;;;;;;;0.47;0.30;;;6.50;99.90;;;;;;5099570;27;20073;-84
2022/01/22 14:59:34;;;;;;;0.95;0.70;;;6.50;99.90;;;;;;5099879;27;20068;-84
2022/01/22 15:02:04;;;;;;;2.88;0.75;;;6.50;99.90;;;;;;5099270;28;20035;-85
2022/01/22 15:08:12;;;;;;;10.05;0.93;;;6.50;99.90;;;;;;5114040;28;20030;-84
2022/01/22 15:10:39;;;;;;;2.30;0.98;;;6.50;99.90;;;;;;5079317;28;20043;-85